Time;durP1;ratioP1;P1;durP2;ratioP2;P2;SDS_P1;SDS_P2;PMS_P1;PMS_P2;Temp;Humidity;BMP_temperature;BMP_pressure;BME280_temperature;BME280_humidity;BME280_pressure;Samples;Min_cycle;Max_cycle;Signal;HPM_P1;HPM_P2
2021/04/06 00:01:47;;;;;;;5.97;1.05;;;5.30;75.50;;;;;;5072852;28;20036;-64
2021/04/06 00:04:24;;;;;;;3.40;1.27;;;5.30;75.10;;;;;;5072732;28;20032;-64
2021/04/06 00:06:56;;;;;;;2.55;0.77;;;5.20;75.70;;;;;;5072214;28;20028;-64
2021/04/06 00:09:25;;;;;;;0.55;0.55;;;5.20;76.10;;;;;;5059035;28;20068;-64
2021/04/06 00:11:56;;;;;;;0.50;0.50;;;5.10;76.50;;;;;;5058580;28;20032;-64
2021/04/06 00:14:24;;;;;;;2.38;1.13;;;5.10;76.80;;;;;;5072297;28;20086;-64
2021/04/06 00:16:55;;;;;;;3.63;0.60;;;5.00;77.20;;;;;;5072625;28;20055;-64
2021/04/06 00:19:23;;;;;;;2.15;1.00;;;5.00;77.30;;;;;;5072089;28;20391;-64
2021/04/06 00:21:52;;;;;;;1.92;1.40;;;5.00;77.30;;;;;;5072431;28;20036;-64
2021/04/06 00:24:23;;;;;;;3.20;0.88;;;5.00;77.30;;;;;;5072517;28;20025;-64
2021/04/06 00:26:54;;;;;;;6.63;1.15;;;5.00;77.20;;;;;;5071962;28;20029;-64
2021/04/06 00:29:25;;;;;;;6.03;1.30;;;5.00;77.20;;;;;;5072559;28;20040;-64
2021/04/06 00:31:55;;;;;;;6.30;1.35;;;5.00;77.10;;;;;;5072619;28;20556;-64
2021/04/06 00:34:23;;;;;;;5.07;1.35;;;5.10;77.00;;;;;;5071531;28;20032;-64
2021/04/06 00:36:54;;;;;;;4.53;1.85;;;5.10;76.90;;;;;;5072473;28;20024;-64
2021/04/06 00:39:34;;;;;;;5.38;1.13;;;5.20;76.90;;;;;;5072473;28;20020;-65
2021/04/06 00:42:17;;;;;;;9.60;1.40;;;5.20;76.80;;;;;;5071786;28;20033;-64
2021/04/06 00:45:04;;;;;;;3.28;1.20;;;5.20;76.70;;;;;;5072452;28;20036;-62
2021/04/06 00:47:30;;;;;;;2.17;0.80;;;5.30;76.40;;;;;;5070512;28;20051;-64
2021/04/06 00:50:01;;;;;;;3.35;1.05;;;5.30;76.00;;;;;;5072348;28;20111;-64
2021/04/06 00:52:28;;;;;;;5.47;1.40;;;5.30;76.00;;;;;;5054207;28;20560;-64
2021/04/06 00:54:57;;;;;;;26.25;2.58;;;5.30;76.00;;;;;;5071627;28;20047;-63
2021/04/06 00:57:26;;;;;;;2.72;0.82;;;5.30;75.70;;;;;;5072359;28;20033;-63
2021/04/06 01:00:10;;;;;;;7.88;1.75;;;5.30;75.80;;;;;;5072078;28;20032;-64
2021/04/06 01:02:36;;;;;;;17.10;3.78;;;5.30;75.90;;;;;;5071680;28;20036;-64
2021/04/06 01:05:07;;;;;;;15.93;2.97;;;5.20;76.70;;;;;;5072136;28;20029;-63
2021/04/06 01:07:36;;;;;;;13.95;2.38;;;5.20;77.10;;;;;;5072115;28;20072;-63
2021/04/06 01:10:07;;;;;;;11.80;3.03;;;5.10;77.10;;;;;;5074392;28;20116;-63
2021/04/06 01:12:33;;;;;;;14.98;3.58;;;5.00;77.10;;;;;;5076165;28;20053;-64
2021/04/06 01:15:01;;;;;;;8.43;1.67;;;4.90;77.40;;;;;;5058163;28;20039;-63
2021/04/06 01:17:34;;;;;;;11.00;2.45;;;4.90;77.50;;;;;;5074826;28;20044;-63
2021/04/06 01:20:13;;;;;;;10.73;2.28;;;4.90;77.50;;;;;;5075839;28;20024;-63
2021/04/06 01:22:41;;;;;;;7.72;1.70;;;4.90;77.10;;;;;;5074991;28;20055;-63
2021/04/06 01:25:16;;;;;;;5.97;1.90;;;4.90;77.60;;;;;;5075837;28;20033;-63
2021/04/06 01:27:41;;;;;;;5.50;1.05;;;4.90;76.70;;;;;;5075798;28;20086;-63
2021/04/06 01:30:09;;;;;;;0.80;0.80;;;4.90;76.50;;;;;;5075260;28;20496;-63
2021/04/06 01:32:35;;;;;;;1.48;1.00;;;4.90;76.50;;;;;;5075488;28;20033;-63
2021/04/06 01:35:04;;;;;;;3.80;1.15;;;4.90;76.50;;;;;;5075573;28;20033;-64
2021/04/06 01:37:33;;;;;;;7.13;1.88;;;4.90;76.20;;;;;;5073202;28;20094;-63
2021/04/06 01:40:00;;;;;;;9.45;2.00;;;5.00;76.00;;;;;;5075593;28;20089;-63
2021/04/06 01:42:30;;;;;;;7.90;1.85;;;5.00;75.90;;;;;;5075114;28;20078;-63
2021/04/06 01:44:57;;;;;;;3.83;1.48;;;5.00;75.80;;;;;;5074435;28;20029;-63
2021/04/06 01:47:26;;;;;;;10.27;1.98;;;4.90;75.70;;;;;;5076252;28;20078;-63
2021/04/06 01:49:51;;;;;;;2.55;1.13;;;4.90;75.70;;;;;;5083803;28;20469;-63
2021/04/06 01:52:18;;;;;;;15.73;2.40;;;4.90;75.60;;;;;;5074424;28;20059;-63
2021/04/06 01:54:52;;;;;;;19.60;2.38;;;4.90;75.40;;;;;;5075256;28;20025;-63
2021/04/06 01:57:24;;;;;;;5.82;1.45;;;4.90;75.20;;;;;;5075145;28;20112;-63
2021/04/06 01:59:54;;;;;;;21.33;2.72;;;4.80;75.30;;;;;;5061352;28;20036;-63
2021/04/06 02:02:25;;;;;;;12.43;2.05;;;4.80;75.40;;;;;;5075309;28;20120;-63
2021/04/06 02:04:59;;;;;;;15.25;3.03;;;4.80;75.60;;;;;;5060638;28;20028;-64
2021/04/06 02:07:28;;;;;;;12.27;2.17;;;4.80;75.10;;;;;;5074962;28;20090;-63
2021/04/06 02:09:54;;;;;;;10.25;2.17;;;4.80;75.00;;;;;;5074752;28;20484;-63
2021/04/06 02:12:22;;;;;;;10.65;2.10;;;4.70;75.10;;;;;;5074137;28;20028;-63
2021/04/06 02:14:52;;;;;;;17.98;2.05;;;4.80;75.00;;;;;;5074631;28;20075;-63
2021/04/06 02:17:18;;;;;;;6.97;1.92;;;4.80;74.40;;;;;;5075036;28;20024;-63
2021/04/06 02:19:44;;;;;;;16.48;2.80;;;4.80;74.00;;;;;;5073036;28;20119;-64
2021/04/06 02:22:15;;;;;;;7.93;1.33;;;4.80;74.00;;;;;;5074329;28;20021;-63
2021/04/06 02:24:53;;;;;;;16.13;2.40;;;4.80;74.20;;;;;;5074597;28;20043;-63
2021/04/06 02:27:22;;;;;;;4.25;1.15;;;4.80;74.30;;;;;;5072967;28;20039;-64
2021/04/06 02:29:55;;;;;;;2.50;1.73;;;4.80;74.40;;;;;;5074657;28;20036;-63
2021/04/06 02:32:25;;;;;;;13.98;2.78;;;4.80;74.50;;;;;;5074557;28;20112;-63
2021/04/06 02:34:53;;;;;;;16.70;3.08;;;4.80;73.60;;;;;;5073675;28;20432;-64
2021/04/06 02:37:24;;;;;;;11.80;2.50;;;4.80;72.30;;;;;;5074312;28;20085;-64
2021/04/06 02:39:54;;;;;;;28.08;3.25;;;4.90;72.40;;;;;;5073684;28;20487;-64
2021/04/06 02:42:26;;;;;;;10.40;1.80;;;4.90;72.90;;;;;;5060675;28;20024;-64
2021/04/06 02:45:08;;;;;;;29.87;3.50;;;4.90;73.10;;;;;;5074562;28;20032;-64
2021/04/06 02:47:37;;;;;;;11.10;2.50;;;4.90;72.90;;;;;;5059631;28;20399;-64
2021/04/06 02:50:05;;;;;;;14.95;2.95;;;4.90;72.60;;;;;;5078753;28;20056;-64
2021/04/06 02:52:31;;;;;;;20.52;2.83;;;4.90;71.50;;;;;;5079803;28;20046;-64
2021/04/06 02:54:57;;;;;;;20.17;4.45;;;4.80;71.90;;;;;;5093688;28;20371;-65
2021/04/06 02:57:25;;;;;;;13.23;2.17;;;4.80;70.80;;;;;;5094149;28;20048;-64
2021/04/06 02:59:54;;;;;;;5.63;1.48;;;4.80;72.40;;;;;;5094515;28;20056;-65
2021/04/06 03:02:20;;;;;;;14.45;1.88;;;4.80;73.20;;;;;;5092068;28;20032;-64
2021/04/06 03:04:49;;;;;;;8.82;2.03;;;4.70;73.70;;;;;;5094127;28;20052;-64
2021/04/06 03:07:19;;;;;;;13.75;2.75;;;4.70;73.60;;;;;;5093912;28;20024;-64
2021/04/06 03:10:03;;;;;;;18.02;3.28;;;4.70;73.40;;;;;;5093458;28;20028;-64
2021/04/06 03:12:30;;;;;;;;;;;4.70;72.50;;;;;;5094196;28;20032;-65
2021/04/06 03:14:57;;;;;;;7.13;1.63;;;4.70;71.40;;;;;;5093829;28;20056;-65
2021/04/06 03:17:24;;;;;;;11.80;2.38;;;4.70;71.40;;;;;;5093788;28;20100;-62
2021/04/06 03:19:57;;;;;;;16.95;2.97;;;4.70;71.50;;;;;;5093898;28;20032;-63
2021/04/06 03:22:25;;;;;;;8.38;2.67;;;4.70;71.90;;;;;;5093076;28;20040;-63
2021/04/06 03:24:52;;;;;;;9.68;2.17;;;4.70;72.30;;;;;;5088417;28;20024;-62
2021/04/06 03:27:27;;;;;;;17.50;2.78;;;4.80;72.40;;;;;;5076175;28;20038;-63
2021/04/06 03:29:53;;;;;;;10.77;2.75;;;4.80;72.50;;;;;;5092331;28;20050;-63
2021/04/06 03:32:21;;;;;;;8.15;2.13;;;4.70;72.80;;;;;;5092331;28;20020;-63
2021/04/06 03:34:48;;;;;;;19.85;2.15;;;4.80;73.10;;;;;;5093415;28;20115;-64
2021/04/06 03:37:14;;;;;;;16.60;2.42;;;4.80;73.20;;;;;;5092454;28;20035;-63
2021/04/06 03:39:40;;;;;;;10.98;3.17;;;4.80;73.20;;;;;;5093300;28;20032;-63
2021/04/06 03:42:06;;;;;;;14.60;3.15;;;4.80;72.90;;;;;;5093214;28;20016;-63
2021/04/06 03:44:32;;;;;;;20.80;2.88;;;4.80;73.00;;;;;;5092953;28;20028;-63
2021/04/06 03:47:04;;;;;;;11.05;2.60;;;4.90;73.30;;;;;;5092981;28;20445;-64
2021/04/06 03:49:32;;;;;;;25.02;3.50;;;4.80;73.30;;;;;;5084632;28;20407;-75
2021/04/06 03:52:07;;;;;;;16.13;2.83;;;4.90;73.50;;;;;;5071703;28;20028;-63
2021/04/06 03:54:42;;;;;;;21.60;3.38;;;4.90;73.50;;;;;;5073017;28;20032;-63
2021/04/06 03:57:20;;;;;;;5.40;1.95;;;4.90;73.00;;;;;;5072736;28;20067;-63
2021/04/06 03:59:46;;;;;;;15.80;2.80;;;4.90;73.00;;;;;;5073001;28;20044;-63
2021/04/06 04:02:12;;;;;;;10.82;2.30;;;4.90;72.70;;;;;;5072643;28;20032;-63
2021/04/06 04:04:38;;;;;;;7.78;1.15;;;4.90;72.70;;;;;;5072079;28;20078;-63
2021/04/06 04:07:06;;;;;;;5.53;1.70;;;4.90;72.90;;;;;;5072714;28;20510;-64
2021/04/06 04:09:32;;;;;;;4.68;1.77;;;4.90;73.10;;;;;;5071875;28;20048;-63
2021/04/06 04:11:58;;;;;;;4.82;1.70;;;4.90;73.30;;;;;;5072405;28;20070;-64
2021/04/06 04:14:23;;;;;;;12.57;4.22;;;5.00;73.20;;;;;;5072640;28;20040;-64
2021/04/06 04:16:49;;;;;;;7.03;2.20;;;4.90;73.50;;;;;;5072815;28;20025;-63
2021/04/06 04:19:15;;;;;;;3.50;1.08;;;4.80;73.90;;;;;;5071767;28;20039;-63
2021/04/06 04:21:43;;;;;;;9.80;1.58;;;4.80;74.00;;;;;;5072580;28;20500;-64
2021/04/06 04:24:12;;;;;;;2.55;0.57;;;4.80;74.10;;;;;;5072708;28;20033;-64
2021/04/06 04:26:38;;;;;;;5.40;1.33;;;4.90;74.10;;;;;;5071615;28;20025;-63
2021/04/06 04:29:03;;;;;;;1.42;0.70;;;4.90;74.00;;;;;;5071813;28;20089;-64
2021/04/06 04:31:29;;;;;;;0.88;0.80;;;5.00;74.00;;;;;;5072397;28;20048;-63
2021/04/06 04:33:55;;;;;;;3.50;0.82;;;5.00;73.90;;;;;;5071153;28;20099;-63
2021/04/06 04:36:30;;;;;;;2.63;1.55;;;5.10;73.80;;;;;;5072226;28;20159;-63
2021/04/06 04:38:56;;;;;;;15.40;3.08;;;5.10;73.70;;;;;;5072703;28;20028;-64
2021/04/06 04:41:21;;;;;;;9.05;2.53;;;5.10;73.60;;;;;;5071547;28;20051;-64
2021/04/06 04:43:47;;;;;;;8.23;1.83;;;5.00;74.10;;;;;;5066339;28;20037;-64
2021/04/06 04:46:13;;;;;;;7.18;1.48;;;5.00;74.20;;;;;;5069645;28;20020;-64
2021/04/06 04:48:38;;;;;;;10.60;1.70;;;4.90;74.30;;;;;;5075286;28;20488;-64
2021/04/06 04:51:04;;;;;;;3.45;1.55;;;4.90;74.30;;;;;;5076473;28;20026;-63
2021/04/06 04:53:33;;;;;;;3.25;1.50;;;4.90;74.50;;;;;;5075867;28;20361;-64
2021/04/06 04:55:58;;;;;;;12.98;1.77;;;4.80;74.30;;;;;;5076321;28;20074;-64
2021/04/06 04:58:24;;;;;;;11.27;2.08;;;4.80;73.50;;;;;;5076337;28;20402;-64
2021/04/06 05:00:49;;;;;;;6.18;1.95;;;4.80;72.90;;;;;;5075466;28;20430;-64
2021/04/06 05:03:15;;;;;;;4.00;1.48;;;4.80;72.20;;;;;;5076314;28;20024;-63
2021/04/06 05:05:44;;;;;;;8.73;2.45;;;4.80;71.90;;;;;;5076024;28;20135;-64
2021/04/06 05:08:12;;;;;;;7.93;1.52;;;4.80;71.80;;;;;;5073604;28;20037;-63
2021/04/06 05:10:38;;;;;;;1.63;1.02;;;4.80;72.30;;;;;;5075835;28;20092;-64
2021/04/06 05:13:04;;;;;;;10.13;2.33;;;4.80;72.10;;;;;;5074822;28;20082;-63
2021/04/06 05:15:30;;;;;;;13.50;2.78;;;4.70;72.20;;;;;;5074921;28;20020;-65
2021/04/06 05:17:57;;;;;;;12.90;2.42;;;4.80;72.50;;;;;;5075636;28;20021;-65
2021/04/06 05:20:26;;;;;;;9.82;3.28;;;4.80;72.50;;;;;;5075773;28;20024;-64
2021/04/06 05:22:52;;;;;;;11.80;2.85;;;4.80;72.40;;;;;;5074260;28;20029;-65
2021/04/06 05:25:18;;;;;;;14.82;2.45;;;4.80;72.90;;;;;;5058587;28;20036;-63
2021/04/06 05:27:44;;;;;;;10.05;2.30;;;4.80;72.80;;;;;;5054889;28;20068;-64
2021/04/06 05:30:10;;;;;;;10.77;2.25;;;4.70;72.30;;;;;;5053637;28;20045;-64
2021/04/06 05:32:36;;;;;;;4.00;1.02;;;4.70;72.60;;;;;;5060426;28;20029;-65
2021/04/06 05:35:03;;;;;;;8.65;2.03;;;4.80;73.00;;;;;;5061913;28;20025;-64
2021/04/06 05:37:28;;;;;;;7.93;1.38;;;4.70;73.20;;;;;;5059591;28;20036;-63
2021/04/06 05:39:54;;;;;;;2.63;1.13;;;4.70;73.40;;;;;;5066348;28;20032;-63
2021/04/06 05:42:21;;;;;;;1.48;1.30;;;4.70;73.60;;;;;;5064208;28;20040;-64
2021/04/06 05:44:47;;;;;;;2.20;1.60;;;4.70;73.70;;;;;;5058367;28;20025;-64
2021/04/06 05:47:34;;;;;;;3.13;1.30;;;4.60;73.70;;;;;;5058148;28;20487;-66
2021/04/06 05:50:01;;;;;;;6.80;1.75;;;4.60;73.80;;;;;;5055064;28;20559;-65
2021/04/06 05:52:30;;;;;;;6.90;1.67;;;4.60;73.90;;;;;;5057972;28;20032;-65
2021/04/06 05:54:57;;;;;;;15.32;2.60;;;4.60;73.90;;;;;;5054723;28;20075;-64
2021/04/06 05:57:26;;;;;;;5.25;1.10;;;4.60;73.90;;;;;;5055728;28;20040;-62
2021/04/06 05:59:52;;;;;;;2.33;1.23;;;4.60;73.90;;;;;;5066961;28;20032;-68
2021/04/06 06:02:18;;;;;;;12.02;1.80;;;4.70;74.00;;;;;;5060890;28;20484;-67
2021/04/06 06:04:43;;;;;;;9.20;1.75;;;4.70;74.00;;;;;;5070099;28;20817;-67
2021/04/06 06:07:13;;;;;;;4.47;1.27;;;4.70;74.30;;;;;;5065458;28;20028;-67
2021/04/06 06:09:39;;;;;;;6.25;1.60;;;4.70;74.90;;;;;;5055876;28;20033;-67
2021/04/06 06:12:10;;;;;;;0.90;0.90;;;4.70;74.80;;;;;;5054854;28;20025;-67
2021/04/06 06:14:40;;;;;;;6.85;1.23;;;4.70;74.90;;;;;;5055692;28;20163;-67
2021/04/06 06:17:27;;;;;;;7.65;2.10;;;4.70;74.90;;;;;;5054828;28;20029;-64
2021/04/06 06:19:55;;;;;;;1.10;1.00;;;4.70;75.00;;;;;;5053166;28;20021;-66
2021/04/06 06:22:23;;;;;;;7.07;3.38;;;4.70;74.90;;;;;;5054997;28;20040;-64
2021/04/06 06:25:04;;;;;;;5.25;1.38;;;4.80;74.90;;;;;;5060251;28;20099;-64
2021/04/06 06:27:38;;;;;;;3.78;1.48;;;4.70;74.80;;;;;;5055387;28;20029;-64
2021/04/06 06:30:31;;;;;;;2.75;1.33;;;4.70;74.90;;;;;;5057764;28;20036;-64
2021/04/06 06:33:21;;;;;;;0.60;0.60;;;4.70;74.70;;;;;;5054626;28;20040;-71
2021/04/06 06:35:55;;;;;;;5.40;1.30;;;4.70;74.70;;;;;;5056891;28;20476;-64
2021/04/06 06:38:20;;;;;;;4.43;1.42;;;4.70;74.70;;;;;;5072336;28;20032;-63
2021/04/06 06:40:49;;;;;;;2.20;1.30;;;4.70;74.70;;;;;;5073379;28;20032;-63
2021/04/06 06:43:17;;;;;;;13.27;1.88;;;4.70;74.70;;;;;;5070207;28;20037;-63
2021/04/06 06:45:44;;;;;;;1.30;0.98;;;4.70;74.40;;;;;;5052014;28;20090;-63
2021/04/06 06:48:10;;;;;;;7.75;1.48;;;4.70;74.50;;;;;;5045607;28;20064;-63
2021/04/06 06:50:48;;;;;;;11.88;1.42;;;4.80;74.40;;;;;;5067355;28;20381;-63
2021/04/06 06:53:28;;;;;;;6.75;2.10;;;4.80;74.40;;;;;;5067366;28;20105;-64
2021/04/06 06:55:54;;;;;;;7.10;1.70;;;4.80;74.70;;;;;;5073538;28;20051;-63
2021/04/06 06:58:30;;;;;;;7.75;1.73;;;4.80;75.10;;;;;;5072468;28;20555;-64
2021/04/06 07:00:56;;;;;;;6.82;1.60;;;4.70;75.70;;;;;;5072927;28;20028;-64
2021/04/06 07:03:21;;;;;;;3.80;1.48;;;4.70;76.20;;;;;;5073487;28;20067;-65
2021/04/06 07:05:47;;;;;;;7.63;1.92;;;4.60;76.60;;;;;;5073184;28;20039;-63
2021/04/06 07:08:13;;;;;;;2.13;1.02;;;4.60;77.10;;;;;;5071862;28;20102;-62
2021/04/06 07:10:42;;;;;;;6.60;1.50;;;4.60;77.20;;;;;;5073460;28;20035;-63
2021/04/06 07:13:24;;;;;;;3.38;1.65;;;4.60;77.50;;;;;;5073676;28;20028;-63
2021/04/06 07:15:51;;;;;;;6.90;1.48;;;4.60;77.70;;;;;;5067531;28;20111;-63
2021/04/06 07:18:22;;;;;;;6.00;1.50;;;4.60;77.70;;;;;;5068942;28;20081;-63
2021/04/06 07:21:05;;;;;;;5.57;1.90;;;4.60;77.70;;;;;;5072510;28;20391;-63
2021/04/06 07:23:37;;;;;;;4.90;1.77;;;4.60;77.70;;;;;;5058833;28;20094;-63
2021/04/06 07:26:06;;;;;;;3.47;1.08;;;4.60;77.70;;;;;;5045744;28;20044;-64
2021/04/06 07:28:32;;;;;;;5.82;1.45;;;4.70;77.60;;;;;;5062812;28;20551;-63
2021/04/06 07:30:58;;;;;;;3.35;1.48;;;4.70;77.60;;;;;;5049069;28;20032;-64
2021/04/06 07:33:24;;;;;;;4.35;1.55;;;4.70;77.40;;;;;;5055220;28;20035;-64
2021/04/06 07:35:52;;;;;;;5.75;1.60;;;4.70;77.40;;;;;;5063435;28;20380;-64
2021/04/06 07:38:18;;;;;;;8.90;2.15;;;4.70;77.40;;;;;;5070160;28;20442;-64
2021/04/06 07:40:44;;;;;;;4.40;1.17;;;4.70;77.40;;;;;;5072022;28;20051;-64
2021/04/06 07:43:10;;;;;;;2.42;1.30;;;4.70;77.50;;;;;;5071228;28;20033;-64
2021/04/06 07:45:39;;;;;;;10.40;2.13;;;4.70;77.30;;;;;;5071803;28;20082;-64
2021/04/06 07:48:05;;;;;;;7.35;1.88;;;4.70;77.60;;;;;;5072053;28;20543;-64
2021/04/06 07:50:44;;;;;;;9.68;2.35;;;4.70;77.20;;;;;;5071345;28;20446;-63
2021/04/06 07:53:25;;;;;;;4.85;1.95;;;4.70;76.90;;;;;;5072682;28;20094;-63
2021/04/06 07:55:55;;;;;;;3.47;1.17;;;4.80;77.00;;;;;;5074063;28;20024;-63
2021/04/06 07:58:47;;;;;;;2.80;1.33;;;4.80;77.80;;;;;;5072854;28;20040;-64
2021/04/06 08:01:17;;;;;;;8.07;1.92;;;4.80;77.10;;;;;;5066569;28;20098;-63
2021/04/06 08:03:56;;;;;;;6.07;1.70;;;4.80;76.90;;;;;;5070537;28;20049;-63
2021/04/06 08:06:26;;;;;;;8.48;1.77;;;4.80;77.10;;;;;;5059355;28;20035;-63
2021/04/06 08:08:53;;;;;;;12.13;2.00;;;4.80;77.20;;;;;;5071609;28;20402;-63
2021/04/06 08:11:19;;;;;;;5.28;1.92;;;4.80;77.30;;;;;;5071388;28;20017;-63
2021/04/06 08:13:45;;;;;;;5.13;2.08;;;4.80;77.30;;;;;;5071925;28;20039;-63
2021/04/06 08:16:13;;;;;;;6.57;2.00;;;4.90;77.40;;;;;;5058240;28;20390;-63
2021/04/06 08:18:48;;;;;;;8.93;1.98;;;4.90;77.30;;;;;;5070124;28;20032;-63
2021/04/06 08:21:14;;;;;;;7.00;1.63;;;5.00;77.20;;;;;;5071717;28;20394;-63
2021/04/06 08:23:40;;;;;;;13.40;1.80;;;5.00;77.00;;;;;;5071913;28;20032;-63
2021/04/06 08:26:27;;;;;;;10.35;1.83;;;5.10;77.00;;;;;;5071068;28;20086;-64
2021/04/06 08:28:52;;;;;;;7.78;1.52;;;5.10;75.70;;;;;;5071519;28;20586;-63
2021/04/06 08:31:27;;;;;;;9.35;2.72;;;5.10;75.20;;;;;;5071730;28;20299;-63
2021/04/06 08:33:54;;;;;;;10.15;1.52;;;5.20;75.70;;;;;;5071191;28;20086;-63
2021/04/06 08:36:27;;;;;;;4.63;1.52;;;5.20;76.00;;;;;;5053460;28;20476;-63
2021/04/06 08:38:55;;;;;;;7.15;1.52;;;5.30;76.00;;;;;;5071065;28;20059;-63
2021/04/06 08:41:24;;;;;;;8.18;1.90;;;5.20;75.60;;;;;;5071665;28;20078;-63
2021/04/06 08:43:55;;;;;;;8.10;1.73;;;5.30;75.40;;;;;;5071549;28;20029;-64
2021/04/06 08:46:40;;;;;;;7.82;2.25;;;5.30;74.70;;;;;;5070779;28;20036;-63
2021/04/06 08:49:14;;;;;;;2.10;1.20;;;5.40;74.60;;;;;;5071409;28;20067;-64
2021/04/06 08:51:46;;;;;;;2.00;1.23;;;5.40;74.80;;;;;;5071625;28;20119;-63
2021/04/06 08:54:13;;;;;;;7.60;1.90;;;5.50;73.00;;;;;;5070850;28;20028;-63
2021/04/06 08:56:45;;;;;;;7.47;2.40;;;5.40;73.80;;;;;;5071364;28;20024;-63
2021/04/06 08:59:33;;;;;;;8.07;1.35;;;5.50;73.50;;;;;;5053854;28;20504;-64
2021/04/06 09:02:12;;;;;;;4.82;1.20;;;5.50;72.80;;;;;;5070812;28;20365;-63
2021/04/06 09:04:48;;;;;;;4.45;1.10;;;5.60;72.30;;;;;;5058114;28;20502;-64
2021/04/06 09:07:25;;;;;;;7.85;1.50;;;5.60;71.80;;;;;;5070614;28;20450;-63
2021/04/06 09:09:59;;;;;;;8.35;1.77;;;5.60;72.50;;;;;;5071223;28;20097;-63
2021/04/06 09:12:25;;;;;;;8.68;1.50;;;5.70;73.70;;;;;;5071337;28;20085;-64
2021/04/06 09:14:51;;;;;;;12.57;2.60;;;5.70;72.30;;;;;;5070548;28;20123;-63
2021/04/06 09:17:18;;;;;;;10.25;1.98;;;5.80;70.50;;;;;;5071469;28;20099;-63
2021/04/06 09:19:46;;;;;;;12.93;2.72;;;5.80;71.60;;;;;;5070916;28;20032;-63
2021/04/06 09:22:14;;;;;;;7.80;1.83;;;5.90;72.00;;;;;;5070847;28;20104;-63
2021/04/06 09:24:41;;;;;;;17.95;3.90;;;5.80;70.80;;;;;;5071163;28;20024;-63
2021/04/06 09:27:08;;;;;;;4.47;1.95;;;5.90;71.60;;;;;;5071425;28;20039;-63
2021/04/06 09:29:36;;;;;;;7.53;1.80;;;6.00;72.50;;;;;;5071297;28;20070;-63
2021/04/06 09:32:12;;;;;;;9.98;2.40;;;6.00;71.60;;;;;;5074654;28;20078;-63
2021/04/06 09:34:43;;;;;;;6.00;1.67;;;6.10;71.80;;;;;;5074815;28;20111;-63
2021/04/06 09:37:10;;;;;;;3.72;1.50;;;6.10;72.60;;;;;;5074273;28;20091;-64
2021/04/06 09:39:38;;;;;;;9.77;2.42;;;6.10;72.60;;;;;;5073971;28;20028;-63
2021/04/06 09:42:06;;;;;;;5.78;1.48;;;6.10;72.20;;;;;;5073956;28;20044;-64
2021/04/06 09:44:36;;;;;;;8.15;2.17;;;6.10;71.20;;;;;;5074449;28;20032;-63
2021/04/06 09:47:09;;;;;;;6.00;1.35;;;6.10;73.00;;;;;;5074727;28;20364;-63
2021/04/06 09:49:49;;;;;;;1.13;1.00;;;6.20;73.50;;;;;;5073941;28;20052;-63
2021/04/06 09:52:16;;;;;;;4.18;1.10;;;6.20;73.90;;;;;;5074449;28;20463;-63
2021/04/06 09:54:50;;;;;;;6.95;1.38;;;6.20;74.00;;;;;;5073398;28;20029;-72
2021/04/06 09:57:16;;;;;;;5.70;1.15;;;6.30;73.90;;;;;;5060145;28;20500;-63
2021/04/06 09:59:45;;;;;;;1.75;1.35;;;6.30;73.80;;;;;;5068969;28;20039;-64
2021/04/06 10:02:20;;;;;;;4.40;1.42;;;6.40;73.70;;;;;;5074375;28;20419;-63
2021/04/06 10:04:48;;;;;;;1.98;1.05;;;6.50;73.80;;;;;;5073275;28;20032;-63
2021/04/06 10:07:22;;;;;;;6.95;1.08;;;6.50;73.90;;;;;;5060096;28;20033;-63
2021/04/06 10:09:51;;;;;;;0.73;0.73;;;6.50;74.00;;;;;;5064781;28;20037;-63
2021/04/06 10:12:18;;;;;;;9.63;1.65;;;6.50;74.00;;;;;;5073421;28;20025;-63
2021/04/06 10:14:45;;;;;;;1.00;0.80;;;6.60;74.30;;;;;;5060438;28;20438;-63
2021/04/06 10:17:16;;;;;;;11.73;2.15;;;6.50;74.30;;;;;;5073330;28;20079;-63
2021/04/06 10:19:57;;;;;;;8.32;1.98;;;6.50;74.30;;;;;;5073617;28;20029;-63
2021/04/06 10:22:25;;;;;;;12.43;2.45;;;6.50;74.20;;;;;;5073691;28;20085;-63
2021/04/06 10:24:59;;;;;;;11.13;2.25;;;6.50;73.40;;;;;;5072842;28;20382;-63
2021/04/06 10:27:35;;;;;;;9.75;2.53;;;6.50;74.00;;;;;;5073896;28;20044;-63
2021/04/06 10:30:05;;;;;;;12.32;2.05;;;6.50;74.00;;;;;;5067363;28;20037;-63
2021/04/06 10:32:34;;;;;;;15.43;2.92;;;6.50;73.60;;;;;;5068622;28;20039;-63
2021/04/06 10:35:20;;;;;;;13.07;1.90;;;6.50;72.90;;;;;;5073235;28;20037;-63
2021/04/06 10:37:53;;;;;;;10.05;1.92;;;6.50;73.40;;;;;;5072989;28;20399;-63
2021/04/06 10:40:38;;;;;;;9.10;1.27;;;6.60;73.50;;;;;;5069063;28;20491;-63
2021/04/06 10:43:08;;;;;;;2.38;0.77;;;6.50;73.80;;;;;;5072956;28;20037;-63
2021/04/06 10:45:37;;;;;;;9.82;1.77;;;6.60;74.30;;;;;;5072735;28;20063;-63
2021/04/06 10:48:16;;;;;;;12.32;2.33;;;6.60;74.00;;;;;;5062765;28;20133;-64
2021/04/06 10:50:47;;;;;;;9.50;2.17;;;6.60;72.90;;;;;;5067277;28;20044;-63
2021/04/06 10:53:30;;;;;;;7.07;1.48;;;6.70;72.60;;;;;;5062717;28;20121;-63
2021/04/06 10:56:02;;;;;;;6.57;1.33;;;6.70;72.90;;;;;;5072536;28;20047;-64
2021/04/06 10:58:58;;;;;;;11.57;1.42;;;6.80;73.60;;;;;;5073376;28;20354;-64
2021/04/06 11:01:37;;;;;;;17.48;2.55;;;6.90;73.60;;;;;;5065195;28;20086;-64
2021/04/06 11:04:09;;;;;;;12.25;1.75;;;6.90;73.50;;;;;;5068735;28;20036;-64
2021/04/06 11:06:37;;;;;;;7.68;1.60;;;7.00;73.60;;;;;;5072485;28;20025;-64
2021/04/06 11:09:25;;;;;;;9.82;1.85;;;7.10;73.50;;;;;;5052752;28;20044;-64
2021/04/06 11:11:54;;;;;;;11.05;1.90;;;7.10;73.40;;;;;;5069946;28;20460;-63
2021/04/06 11:14:24;;;;;;;8.93;1.92;;;7.10;71.70;;;;;;5060087;28;20024;-64
2021/04/06 11:16:51;;;;;;;7.53;1.83;;;7.10;72.20;;;;;;5066113;28;20067;-64
2021/04/06 11:19:22;;;;;;;8.68;2.30;;;7.10;71.90;;;;;;5071880;28;20020;-63
2021/04/06 11:21:54;;;;;;;4.32;1.60;;;7.10;74.20;;;;;;5071378;28;20024;-63
2021/04/06 11:24:22;;;;;;;3.30;1.73;;;7.00;74.60;;;;;;5071855;28;20032;-63
2021/04/06 11:26:48;;;;;;;1.15;0.75;;;7.10;75.00;;;;;;5071663;28;20031;-64
2021/04/06 11:29:17;;;;;;;1.92;1.00;;;7.00;75.10;;;;;;5071471;28;20028;-66
2021/04/06 11:31:46;;;;;;;5.93;0.93;;;7.10;75.00;;;;;;5072323;28;20062;-65
2021/04/06 11:34:12;;;;;;;2.03;0.73;;;7.10;74.90;;;;;;5070164;28;20379;-64
2021/04/06 11:36:39;;;;;;;4.13;1.30;;;7.20;75.00;;;;;;5055091;28;20024;-64
2021/04/06 11:39:07;;;;;;;2.08;1.25;;;7.20;75.30;;;;;;5070925;28;20122;-65
2021/04/06 11:41:34;;;;;;;13.52;2.25;;;7.20;75.30;;;;;;5071494;28;20106;-64
2021/04/06 11:44:00;;;;;;;6.55;2.08;;;7.30;75.50;;;;;;5069254;28;20060;-64
2021/04/06 11:46:26;;;;;;;8.43;1.83;;;7.30;76.30;;;;;;5064568;28;20076;-64
2021/04/06 11:48:52;;;;;;;9.13;1.90;;;7.30;74.30;;;;;;5067979;28;20041;-64
2021/04/06 11:51:18;;;;;;;7.05;2.88;;;7.30;73.30;;;;;;5072208;28;20425;-64
2021/04/06 11:53:44;;;;;;;14.25;2.28;;;7.30;73.20;;;;;;5071503;28;20115;-64
2021/04/06 11:56:10;;;;;;;8.55;1.60;;;7.30;70.20;;;;;;5065353;28;20128;-64
2021/04/06 11:58:36;;;;;;;14.18;2.45;;;7.30;71.70;;;;;;5052851;28;20522;-64
2021/04/06 12:01:02;;;;;;;9.00;2.10;;;7.30;68.10;;;;;;5070938;28;20020;-63
2021/04/06 12:03:27;;;;;;;8.00;1.52;;;7.30;67.90;;;;;;5070999;28;20035;-63
2021/04/06 12:05:53;;;;;;;14.50;2.58;;;7.30;71.80;;;;;;5071139;28;20378;-63
2021/04/06 12:08:19;;;;;;;14.98;3.25;;;7.30;72.10;;;;;;5071513;28;20028;-63
2021/04/06 12:10:47;;;;;;;14.13;2.45;;;7.40;69.00;;;;;;5069688;28;20486;-64
2021/04/06 12:13:13;;;;;;;12.55;2.75;;;7.40;67.40;;;;;;5071712;28;20086;-64
2021/04/06 12:15:38;;;;;;;7.18;2.35;;;7.40;67.40;;;;;;5066061;28;20025;-63
2021/04/06 12:18:05;;;;;;;11.35;2.25;;;7.40;70.40;;;;;;5070799;28;20090;-64
2021/04/06 12:20:31;;;;;;;14.20;2.53;;;7.50;72.40;;;;;;5071960;28;20029;-64
2021/04/06 12:22:56;;;;;;;8.07;2.60;;;7.50;73.40;;;;;;5071354;28;20028;-64
2021/04/06 12:25:22;;;;;;;9.65;1.25;;;7.50;73.80;;;;;;5071108;28;20028;-64
2021/04/06 12:27:48;;;;;;;13.90;3.05;;;7.50;74.50;;;;;;5070810;28;20059;-64
2021/04/06 12:30:15;;;;;;;11.80;2.28;;;7.50;74.60;;;;;;5071858;28;20093;-63
2021/04/06 12:32:41;;;;;;;6.97;1.50;;;7.50;74.80;;;;;;5070796;28;20021;-64
2021/04/06 12:35:08;;;;;;;2.58;1.50;;;7.60;74.90;;;;;;5070678;28;20028;-63
2021/04/06 12:37:34;;;;;;;6.20;2.25;;;7.60;74.90;;;;;;5071645;28;20035;-63
2021/04/06 12:40:00;;;;;;;3.47;1.13;;;7.70;74.80;;;;;;5070296;28;20029;-63
2021/04/06 12:42:26;;;;;;;5.55;1.75;;;7.60;74.90;;;;;;5071750;28;20115;-64
2021/04/06 12:44:52;;;;;;;3.92;1.15;;;7.60;74.50;;;;;;5070635;28;20376;-63
2021/04/06 12:47:18;;;;;;;5.18;1.40;;;7.70;75.20;;;;;;5071046;28;20016;-63
2021/04/06 12:49:45;;;;;;;3.13;0.65;;;7.70;74.70;;;;;;5072606;28;20044;-64
2021/04/06 12:52:11;;;;;;;0.70;0.65;;;7.80;74.70;;;;;;5056427;28;20051;-63
2021/04/06 12:54:37;;;;;;;1.02;0.85;;;7.80;74.50;;;;;;5053557;28;20040;-63
2021/04/06 12:57:03;;;;;;;1.13;0.70;;;7.90;74.60;;;;;;5057630;28;20128;-63
2021/04/06 12:59:29;;;;;;;3.45;0.98;;;7.90;74.20;;;;;;5057780;28;20120;-63
2021/04/06 13:01:55;;;;;;;5.25;1.17;;;7.90;75.20;;;;;;5052509;28;20108;-63
2021/04/06 13:04:20;;;;;;;8.95;1.88;;;8.00;75.20;;;;;;5056143;28;20029;-63
2021/04/06 13:06:46;;;;;;;11.68;1.88;;;8.10;75.30;;;;;;5058366;28;20692;-63